CST,Max TemperatureF,Mean TemperatureF,Min TemperatureF,Max Dew PointF,MeanDew PointF,Min DewpointF,Max Humidity, Mean Humidity, Min Humidity, Max Sea Level PressureIn, Mean Sea Level PressureIn, Min Sea Level PressureIn, Max VisibilityMiles, Mean VisibilityMiles, Min VisibilityMiles, Max Wind SpeedMPH, Mean Wind SpeedMPH, Max Gust SpeedMPH,PrecipitationIn, CloudCover, Events, WindDirDegrees
2012-11-1,86,70,53,70,63,54,100,83,42,30.09,30.03,29.98,10,6,0,15,2,18,0.00,2,Fog,223
2012-11-2,84,72,59,73,65,59,100,86,48,30.09,30.04,30.01,10,5,0,14,4,16,0.01,3,Fog,188
2012-11-3,84,72,59,72,65,59,100,84,51,30.14,30.08,30.04,10,7,0,13,4,31,0.00,2,Fog-Thunderstorm,165
2012-11-4,80,70,60,72,63,61,100,86,54,30.12,30.07,30.02,10,7,0,10,2,22,0.42,2,Fog-Rain-Thunderstorm,31
2012-11-5,80,68,57,70,64,55,100,90,58,30.08,30.01,29.92,10,7,0,14,3,21,0.08,6,Fog-Rain-Thunderstorm,205
2012-11-6,71,58,46,55,48,41,100,76,37,30.12,30.07,30.00,10,10,2,13,4,17,0.00,0,,331
2012-11-7,77,60,44,52,44,36,100,64,22,30.16,30.12,30.06,10,10,7,15,3,20,0.00,0,,339
2012-11-8,71,60,48,54,47,41,88,64,38,30.26,30.19,30.15,10,10,10,9,5,,0.00,0,,111
2012-11-9,77,66,55,63,58,52,94,81,57,30.21,30.16,30.12,10,10,10,16,8,21,0.00,0,,118
2012-11-10,80,70,59,66,62,59,100,78,51,30.17,30.10,30.04,10,10,7,20,9,25,0.00,3,,116
2012-11-11,73,71,69,72,69,64,100,92,78,30.08,30.02,29.98,10,8,1,20,10,26,0.39,6,Rain-Thunderstorm,134
2012-11-12,69,58,46,70,45,32,100,64,30,30.44,30.31,30.08,10,10,1,25,12,33,0.03,3,Rain,360
2012-11-13,59,50,41,37,32,28,76,51,34,30.48,30.39,30.33,10,10,10,18,9,26,0.00,0,,17
2012-11-14,64,52,41,39,35,32,81,56,30,30.40,30.33,30.27,10,10,10,12,6,16,0.00,2,,5
2012-11-15,64,48,33,41,35,32,100,59,30,30.34,30.29,30.22,10,10,10,8,4,,0.00,0,,21
2012-11-16,66,52,37,45,41,37,100,69,37,30.35,30.31,30.26,10,10,7,9,5,16,0.00,0,,13
2012-11-17,69,53,37,43,39,34,100,66,27,30.39,30.33,30.29,10,10,5,9,4,,0.00,0,,33
2012-11-18,69,54,39,45,39,36,93,59,28,30.34,30.30,30.24,10,10,10,7,3,,0.00,0,,53
2012-11-19,71,55,39,52,44,39,100,74,35,30.30,30.24,30.19,10,10,5,7,1,,0.00,0,,129
2012-11-20,77,60,42,55,49,43,100,73,34,30.25,30.19,30.14,10,7,0,5,1,,0.00,1,Fog,332
2012-11-21,78,62,46,61,51,46,100,79,36,30.27,30.21,30.16,10,6,0,10,2,16,0.00,1,Fog,348
2012-11-22,77,60,44,61,50,43,100,75,29,30.24,30.19,30.14,10,9,5,10,2,,0.00,1,,153
2012-11-23,73,62,51,64,59,52,100,90,61,30.31,30.24,30.18,10,8,0,16,4,22,0.02,7,Fog-Rain,356
2012-11-24,62,50,37,54,36,32,100,62,34,30.37,30.29,30.20,10,10,10,16,8,22,0.00,1,,353
2012-11-25,68,52,35,61,47,34,100,80,55,30.20,30.12,30.03,10,10,10,13,4,17,0.00,1,,124
2012-11-26,78,70,62,72,67,61,100,91,69,30.08,30.02,29.98,10,8,0,17,8,28,1.17,4,Fog-Rain-Thunderstorm,163
2012-11-27,68,59,48,68,55,45,100,90,72,30.35,30.23,30.05,10,9,2,17,6,25,0.17,5,Rain-Thunderstorm,345
2012-11-28,62,52,41,45,42,37,100,76,39,30.45,30.37,30.32,10,9,4,9,5,,0.00,0,,32
2012-11-29,68,56,44,54,44,37,100,73,35,30.35,30.28,30.21,10,9,1,8,4,,0.00,0,,89
2012-11-30,73,60,46,63,58,46,100,88,65,30.25,30.20,30.16,10,8,1,12,4,16,0.00,6,,118